Time;durP1;ratioP1;P1;durP2;ratioP2;P2;SDS_P1;SDS_P2;PMS_P1;PMS_P2;Temp;Humidity;BMP_temperature;BMP_pressure;BME280_temperature;BME280_humidity;BME280_pressure;Samples;Min_cycle;Max_cycle;Signal;HPM_P1;HPM_P2
2023/11/04 06:46:50;;;;;;;1.95;0.32;;;;;;;;;;10663564;27;20322;-85
2023/11/04 06:51:52;;;;;;;0.70;0.38;;;;;;;;;;10632720;27;20035;-86
2023/11/04 07:01:57;;;;;;;2.40;0.30;;;;;;;;;;10545386;28;20040;-86
2023/11/04 07:06:58;;;;;;;3.33;0.40;;;;;;;;;;10542821;28;20056;-86
2023/11/04 07:12:01;;;;;;;1.00;0.50;;;;;;;;;;10549613;28;20043;-85
2023/11/04 07:17:07;;;;;;;1.50;0.63;;;;;;;;;;10553559;28;20032;-85
2023/11/04 07:22:14;;;;;;;1.67;0.32;;;;;;;;;;10548249;28;20039;-85
2023/11/04 07:27:20;;;;;;;1.45;0.65;;;;;;;;;;10547955;28;20029;-85
2023/11/04 07:32:21;;;;;;;1.23;0.40;;;;;;;;;;10533506;28;20428;-85
2023/11/04 07:37:23;;;;;;;0.90;0.43;;;;;;;;;;10550445;28;20063;-85
2023/11/04 07:42:25;;;;;;;0.70;0.50;;;;;;;;;;10550877;28;20032;-85
2023/11/04 07:47:25;;;;;;;;;;;;;;;;;;10544100;28;20026;-85
2023/11/04 07:52:27;;;;;;;1.58;0.55;;;;;;;;;;10547066;28;19912;-85
2023/11/04 07:57:29;;;;;;;1.00;0.65;;;;;;;;;;10518005;28;20107;-86
2023/11/04 08:02:58;;;;;;;1.00;0.50;;;;;;;;;;10511976;28;20448;-86
2023/11/04 08:08:25;;;;;;;1.00;0.43;;;;;;;;;;10516335;28;20032;-86
2023/11/04 08:14:04;;;;;;;0.75;0.50;;;;;;;;;;10517400;28;20494;-87
2023/11/04 08:19:08;;;;;;;0.88;0.40;;;;;;;;;;10513970;28;20514;-87
2023/11/04 08:24:10;;;;;;;2.60;0.60;;;;;;;;;;10519472;28;20032;-85
2023/11/04 08:29:11;;;;;;;;;;;;;;;;;;10519100;28;20104;-85
2023/11/04 08:34:13;;;;;;;0.70;0.40;;;;;;;;;;10517230;28;19919;-84
2023/11/04 08:39:17;;;;;;;3.38;0.47;;;;;;;;;;10516770;28;20023;-86
2023/11/04 08:44:20;;;;;;;0.73;0.40;;;;;;;;;;10514896;28;20062;-86
2023/11/04 08:49:21;;;;;;;0.88;0.60;;;;;;;;;;10516161;28;20047;-86
2023/11/04 08:54:26;;;;;;;1.98;0.50;;;;;;;;;;10519519;28;20048;-86
2023/11/04 08:59:29;;;;;;;1.13;0.40;;;;;;;;;;10532827;28;20058;-81
2023/11/04 09:04:30;;;;;;;1.10;0.60;;;;;;;;;;10538127;28;20063;-84
2023/11/04 09:09:31;;;;;;;1.33;0.50;;;;;;;;;;10525814;28;20388;-84
2023/11/04 09:14:33;;;;;;;;;;;;;;;;;;10514505;28;20033;-86
2023/11/04 09:19:35;;;;;;;3.53;0.70;;;;;;;;;;10507708;28;20426;-80
2023/11/04 09:24:36;;;;;;;;;;;;;;;;;;10505706;28;20028;-79
2023/11/04 09:29:38;;;;;;;1.92;0.80;;;;;;;;;;10504150;28;20276;-79
2023/11/04 09:34:41;;;;;;;2.10;1.10;;;;;;;;;;10505039;28;20536;-82
2023/11/04 09:39:43;;;;;;;2.60;0.80;;;;;;;;;;10505581;28;20445;-80
2023/11/04 09:44:44;;;;;;;2.15;0.75;;;;;;;;;;10505467;28;20456;-79
2023/11/04 09:49:46;;;;;;;;;;;;;;;;;;10503983;28;20054;-80
2023/11/04 09:54:48;;;;;;;1.15;0.60;;;;;;;;;;10504220;28;19908;-79
2023/11/04 09:59:49;;;;;;;3.50;0.90;;;;;;;;;;10508041;28;20037;-82
2023/11/04 10:04:58;;;;;;;1.08;0.60;;;;;;;;;;10508006;28;20028;-80
2023/11/04 10:10:22;;;;;;;1.88;0.73;;;;;;;;;;10508552;28;20141;-84
2023/11/04 10:15:28;;;;;;;0.80;0.60;;;;;;;;;;10507253;28;20028;-79
2023/11/04 10:20:31;;;;;;;2.60;0.88;;;;;;;;;;10506049;28;20027;-80
2023/11/04 10:25:32;;;;;;;4.03;0.70;;;;;;;;;;10504870;28;20091;-80
2023/11/04 10:30:43;;;;;;;2.42;0.80;;;;;;;;;;10506947;28;20032;-80
2023/11/04 10:35:47;;;;;;;1.90;0.80;;;;;;;;;;10509983;28;20021;-81
2023/11/04 10:40:51;;;;;;;2.08;0.60;;;;;;;;;;10508264;28;20044;-82
2023/11/04 10:46:05;;;;;;;1.33;0.85;;;;;;;;;;10509139;28;20028;-82
2023/11/04 10:51:32;;;;;;;1.67;0.77;;;;;;;;;;10511875;28;20044;-80
2023/11/04 10:57:28;;;;;;;5.05;0.73;;;;;;;;;;10505744;28;20102;-84
2023/11/04 11:02:31;;;;;;;1.73;0.70;;;;;;;;;;10508239;28;20047;-84
2023/11/04 11:07:39;;;;;;;1.77;0.80;;;;;;;;;;10496265;28;20100;-83
2023/11/04 11:12:46;;;;;;;2.10;0.80;;;;;;;;;;10515675;28;20031;-84
2023/11/04 11:17:59;;;;;;;2.15;0.90;;;;;;;;;;10511308;28;20020;-83
2023/11/04 11:23:05;;;;;;;2.03;0.90;;;;;;;;;;10512707;28;20182;-84
2023/11/04 11:28:21;;;;;;;3.08;1.00;;;;;;;;;;10511660;28;20484;-81
2023/11/04 11:33:26;;;;;;;3.33;1.15;;;;;;;;;;10519368;28;20119;-84
2023/11/04 11:38:29;;;;;;;2.97;0.93;;;;;;;;;;10521828;28;20029;-85
2023/11/04 11:43:31;;;;;;;5.03;2.22;;;;;;;;;;10521125;28;20058;-81
2023/11/04 11:48:36;;;;;;;3.10;1.17;;;;;;;;;;10519447;28;20471;-81
2023/11/04 11:53:43;;;;;;;3.15;1.10;;;;;;;;;;10517214;28;20360;-80
2023/11/04 11:58:47;;;;;;;3.17;1.10;;;;;;;;;;10517560;28;20099;-83
2023/11/04 12:03:50;;;;;;;2.83;1.35;;;;;;;;;;10516679;28;20055;-82
2023/11/04 12:08:51;;;;;;;3.10;1.25;;;;;;;;;;10514939;28;20568;-83
2023/11/04 12:13:52;;;;;;;3.17;1.30;;;;;;;;;;10517996;28;20035;-83
2023/11/04 12:19:05;;;;;;;3.35;1.00;;;;;;;;;;10514649;28;20142;-82
2023/11/04 12:24:12;;;;;;;2.10;1.00;;;;;;;;;;10518354;28;20041;-86
2023/11/04 12:29:17;;;;;;;3.67;0.80;;;;;;;;;;10524868;28;20115;-85
2023/11/04 12:34:23;;;;;;;1.50;1.00;;;;;;;;;;10502733;28;20131;-85
2023/11/04 12:39:30;;;;;;;2.28;1.05;;;;;;;;;;10515921;28;20035;-85
2023/11/04 12:44:47;;;;;;;3.78;1.55;;;;;;;;;;10514633;28;20044;-84
2023/11/04 12:49:58;;;;;;;2.72;0.90;;;;;;;;;;10515916;28;20042;-79
2023/11/04 12:55:26;;;;;;;3.33;0.80;;;;;;;;;;10509843;28;20036;-86
2023/11/04 13:00:28;;;;;;;2.40;0.98;;;;;;;;;;10544605;22;20084;-86
2023/11/04 13:05:29;;;;;;;1.70;0.75;;;;;;;;;;10466987;28;20021;-85
2023/11/04 13:10:30;;;;;;;;;;;;;;;;;;10467711;28;20033;-85
2023/11/04 13:15:35;;;;;;;1.55;0.70;;;;;;;;;;10464320;28;19909;-84
2023/11/04 13:20:36;;;;;;;3.05;1.08;;;;;;;;;;10466110;28;20041;-84
2023/11/04 13:25:37;;;;;;;2.00;0.90;;;;;;;;;;10467533;28;20063;-84
2023/11/04 13:30:38;;;;;;;1.95;1.10;;;;;;;;;;10487160;28;20059;-83
2023/11/04 13:35:40;;;;;;;2.60;0.90;;;;;;;;;;10485091;28;20051;-83
2023/11/04 13:40:41;;;;;;;2.13;1.08;;;;;;;;;;10486481;28;20048;-83
2023/11/04 13:45:42;;;;;;;1.63;0.70;;;;;;;;;;10491648;28;20033;-83
2023/11/04 13:50:47;;;;;;;1.05;0.60;;;;;;;;;;10489533;28;20044;-85
2023/11/04 13:55:49;;;;;;;1.98;1.00;;;;;;;;;;10494318;28;20036;-84
2023/11/04 14:00:50;;;;;;;2.42;0.85;;;;;;;;;;10485309;28;20037;-83
2023/11/04 14:11:31;;;;;;;2.38;1.08;;;;;;;;;;10464962;28;20025;-82
2023/11/04 14:16:32;;;;;;;3.33;1.00;;;;;;;;;;10461349;28;20489;-83
2023/11/04 14:21:33;;;;;;;2.42;1.13;;;;;;;;;;10460998;28;20029;-83
2023/11/04 14:26:34;;;;;;;3.72;1.20;;;;;;;;;;10461854;28;20459;-84
2023/11/04 14:31:35;;;;;;;;;;;;;;;;;;10462649;28;20488;-83
2023/11/04 14:36:44;;;;;;;1.05;0.50;;;;;;;;;;10461721;28;19913;-84
2023/11/04 14:41:49;;;;;;;2.13;0.90;;;;;;;;;;10480173;28;20021;-86
2023/11/04 14:47:00;;;;;;;0.88;0.50;;;;;;;;;;10501417;28;20021;-84
2023/11/04 14:52:06;;;;;;;1.35;0.73;;;;;;;;;;10464555;28;20056;-85
2023/11/04 14:57:09;;;;;;;1.15;0.70;;;;;;;;;;10476948;28;20036;-83
2023/11/04 15:02:10;;;;;;;2.75;0.60;;;;;;;;;;10479132;28;20044;-85
2023/11/04 15:07:11;;;;;;;4.05;1.40;;;;;;;;;;10468038;28;20024;-87
2023/11/04 15:12:12;;;;;;;2.03;0.95;;;;;;;;;;10469954;28;20480;-84
2023/11/04 15:17:13;;;;;;;0.88;0.50;;;;;;;;;;10473048;28;20112;-85
2023/11/04 15:22:14;;;;;;;1.17;0.60;;;;;;;;;;10469431;28;20063;-86
2023/11/04 15:27:17;;;;;;;1.23;0.50;;;;;;;;;;10470257;28;20039;-84
